Time;durP1;ratioP1;P1;durP2;ratioP2;P2;SDS_P1;SDS_P2;PMS_P1;PMS_P2;Temp;Humidity;BMP_temperature;BMP_pressure;BME280_temperature;BME280_humidity;BME280_pressure;Samples;Min_cycle;Max_cycle;Signal;HPM_P1;HPM_P2
2021/04/03 00:01:36;;;;;;;1999.90;999.90;;;7.30;99.90;;;;;;4836507;29;20165;-85
2021/04/03 00:04:08;;;;;;;1999.90;999.90;;;7.30;99.90;;;;;;4819298;29;20850;-85
2021/04/03 00:06:42;;;;;;;1999.90;999.90;;;7.30;99.90;;;;;;4818951;29;20177;-85
2021/04/03 00:09:11;;;;;;;1999.90;999.90;;;7.40;99.90;;;;;;4835153;29;20206;-85
2021/04/03 00:11:36;;;;;;;1999.90;999.90;;;7.40;99.90;;;;;;4836427;29;20179;-85
2021/04/03 00:14:18;;;;;;;1999.90;999.90;;;7.50;99.90;;;;;;4836029;29;20258;-85
2021/04/03 00:16:53;;;;;;;1999.90;999.90;;;7.50;99.90;;;;;;4819203;29;20216;-85
2021/04/03 00:19:35;;;;;;;1999.90;999.90;;;7.50;99.90;;;;;;4835222;29;20268;-85
2021/04/03 00:25:10;;;;;;;1999.90;999.90;;;7.40;99.90;;;;;;4818406;29;20214;-85
2021/04/03 00:27:44;;;;;;;1999.90;999.90;;;7.40;99.90;;;;;;4821581;29;20214;-86
2021/04/03 00:30:26;;;;;;;1999.90;999.90;;;7.40;99.90;;;;;;4821007;29;20164;-87
2021/04/03 00:32:57;;;;;;;1999.90;999.90;;;7.40;99.90;;;;;;4837318;29;20157;-87
2021/04/03 00:35:28;;;;;;;1999.90;999.90;;;7.30;99.90;;;;;;4821067;29;20177;-87
2021/04/03 00:38:12;;;;;;;1999.90;999.90;;;7.30;99.90;;;;;;4838364;29;20197;-85
2021/04/03 00:41:19;;;;;;;1999.90;999.90;;;7.30;99.90;;;;;;4837506;29;20192;-86
2021/04/03 00:43:47;;;;;;;1999.90;999.90;;;7.30;99.90;;;;;;4820224;29;20180;-85
2021/04/03 00:46:19;;;;;;;1999.90;999.90;;;7.30;99.90;;;;;;4821470;29;20194;-84
2021/04/03 00:48:46;;;;;;;1999.90;999.90;;;7.30;99.90;;;;;;4836157;29;20193;-85
2021/04/03 00:51:28;;;;;;;1999.90;999.90;;;7.30;99.90;;;;;;4836642;29;20256;-84
2021/04/03 00:53:57;;;;;;;1999.90;999.90;;;7.10;99.90;;;;;;4837226;29;20220;-85
2021/04/03 00:56:28;;;;;;;1999.90;999.90;;;7.20;99.90;;;;;;4820502;29;20173;-85
2021/04/03 00:58:57;;;;;;;1999.90;999.90;;;7.20;99.90;;;;;;4837010;29;20208;-85
2021/04/03 01:01:23;;;;;;;1999.90;999.90;;;7.20;99.90;;;;;;4836952;29;20248;-87
2021/04/03 01:03:57;;;;;;;1999.90;999.90;;;7.20;99.90;;;;;;4835828;29;20172;-85
2021/04/03 01:06:23;;;;;;;1999.90;999.90;;;7.10;99.90;;;;;;4818160;29;20508;-85
2021/04/03 01:08:57;;;;;;;1999.90;999.90;;;7.20;99.90;;;;;;4836342;29;20224;-85
2021/04/03 01:11:41;;;;;;;1999.90;999.90;;;7.20;99.90;;;;;;4836507;29;20164;-84
2021/04/03 01:14:19;;;;;;;1999.90;999.90;;;7.10;99.90;;;;;;4836456;29;20153;-86
2021/04/03 01:17:24;;;;;;;1999.90;999.90;;;7.10;99.90;;;;;;4836146;29;20168;-85
2021/04/03 01:20:37;;;;;;;1999.90;999.90;;;7.10;99.90;;;;;;4835645;29;20200;-85
2021/04/03 01:23:30;;;;;;;1999.90;999.90;;;7.10;99.90;;;;;;4779585;30;20205;-85
2021/04/03 01:26:11;;;;;;;1999.90;999.90;;;7.00;99.90;;;;;;4797838;30;20260;-85
2021/04/03 01:29:01;;;;;;;1999.90;999.90;;;6.90;99.90;;;;;;4809459;29;20224;-84
2021/04/03 01:34:42;;;;;;;1999.90;999.90;;;6.80;99.90;;;;;;4836386;29;20268;-85
2021/04/03 01:37:16;;;;;;;1999.90;999.90;;;6.60;99.90;;;;;;4840169;29;20237;-85
2021/04/03 01:39:53;;;;;;;1999.90;999.90;;;6.60;99.90;;;;;;4840719;29;20203;-86
2021/04/03 01:43:02;;;;;;;1999.90;999.90;;;6.60;99.90;;;;;;4841550;29;20153;-86
2021/04/03 01:45:25;;;;;;;1999.90;999.90;;;6.40;99.90;;;;;;4837937;29;20245;-86
2021/04/03 01:47:54;;;;;;;1999.90;999.90;;;6.40;99.90;;;;;;4838186;29;20235;-86
2021/04/03 01:50:33;;;;;;;1999.90;999.90;;;6.40;99.90;;;;;;4837185;29;20177;-86
2021/04/03 01:53:22;;;;;;;1999.90;999.90;;;6.30;99.90;;;;;;4818201;29;20172;-86
2021/04/03 01:55:52;;;;;;;1999.90;999.90;;;6.20;99.90;;;;;;4831546;29;20181;-85
2021/04/03 01:58:18;;;;;;;1999.90;999.90;;;6.20;99.90;;;;;;4831372;29;20204;-85
2021/04/03 02:00:52;;;;;;;1999.90;999.90;;;6.20;99.90;;;;;;4814834;29;20299;-86
2021/04/03 02:03:26;;;;;;;1999.90;999.90;;;6.30;99.90;;;;;;4834648;29;20164;-86
2021/04/03 02:05:54;;;;;;;1999.90;999.90;;;6.30;99.90;;;;;;4838988;29;20522;-84
2021/04/03 02:08:29;;;;;;;1999.90;999.90;;;6.20;99.90;;;;;;4833604;29;20184;-84
2021/04/03 02:11:08;;;;;;;1999.90;999.90;;;6.30;99.90;;;;;;4834076;29;20172;-85
2021/04/03 02:13:45;;;;;;;1999.90;999.90;;;6.20;99.90;;;;;;4843042;29;20236;-88
2021/04/03 02:16:17;;;;;;;1999.90;999.90;;;6.20;99.90;;;;;;4841351;29;20164;-89
2021/04/03 02:18:47;;;;;;;1999.90;999.90;;;6.20;99.90;;;;;;4840459;29;20212;-88
2021/04/03 02:21:12;;;;;;;1999.90;999.90;;;6.30;99.90;;;;;;4836755;29;20160;-87
2021/04/03 02:23:55;;;;;;;1999.90;999.90;;;6.30;99.90;;;;;;4821087;29;20168;-87
2021/04/03 02:26:21;;;;;;;1999.90;999.90;;;6.30;99.90;;;;;;4820728;29;20165;-88
2021/04/03 02:29:24;;;;;;;1999.90;999.90;;;6.30;99.90;;;;;;4836748;29;20221;-88
2021/04/03 02:31:55;;;;;;;1999.90;999.90;;;6.20;99.90;;;;;;4820062;29;20184;-88
2021/04/03 02:34:27;;;;;;;1999.90;999.90;;;6.10;99.90;;;;;;4837112;29;20176;-87
2021/04/03 02:36:55;;;;;;;1999.90;999.90;;;6.10;99.90;;;;;;4820516;29;20203;-88
2021/04/03 02:39:30;;;;;;;1999.90;999.90;;;6.20;99.90;;;;;;4821244;29;20216;-88
2021/04/03 02:42:32;;;;;;;1999.90;999.90;;;6.20;99.90;;;;;;4819831;29;20269;-88
2021/04/03 02:45:18;;;;;;;1999.90;999.90;;;6.10;99.90;;;;;;4835921;29;20160;-88
2021/04/03 02:48:17;;;;;;;1999.90;999.90;;;6.20;99.90;;;;;;4819568;29;20227;-88
2021/04/03 02:51:03;;;;;;;1999.90;999.90;;;6.10;99.90;;;;;;4820370;29;20188;-88
2021/04/03 02:53:35;;;;;;;1999.90;999.90;;;6.10;99.90;;;;;;4819269;29;20194;-88
2021/04/03 02:56:12;;;;;;;1999.90;999.90;;;6.20;99.90;;;;;;4818784;29;20241;-87
2021/04/03 03:02:01;;;;;;;1999.90;999.90;;;6.40;99.90;;;;;;4835369;29;20285;-87
2021/04/03 03:04:37;;;;;;;1999.90;999.90;;;6.40;99.90;;;;;;4835728;29;20181;-86
2021/04/03 03:07:04;;;;;;;1999.90;999.90;;;6.40;99.90;;;;;;4818830;29;20173;-87
2021/04/03 03:09:45;;;;;;;1999.90;999.90;;;6.30;99.90;;;;;;4819493;29;20200;-87
2021/04/03 03:12:58;;;;;;;1999.90;999.90;;;6.30;99.90;;;;;;4834405;29;20215;-88
2021/04/03 03:15:10;;;;;;;1999.90;999.90;;;6.40;99.90;;;;;;4825925;29;20216;-87
2021/04/03 03:17:42;;;;;;;1999.90;999.90;;;6.50;99.90;;;;;;4820291;29;20225;-87
2021/04/03 03:20:17;;;;;;;1999.90;999.90;;;6.40;99.90;;;;;;4819286;29;20215;-86
2021/04/03 03:22:51;;;;;;;1999.90;999.90;;;6.40;99.90;;;;;;4835862;29;20203;-87
2021/04/03 03:25:39;;;;;;;1999.90;999.90;;;6.40;99.90;;;;;;4820044;29;20175;-86
2021/04/03 03:28:18;;;;;;;1999.90;999.90;;;6.40;99.90;;;;;;4836110;29;20196;-88
2021/04/03 03:30:46;;;;;;;1999.90;999.90;;;6.40;99.90;;;;;;4836666;29;20173;-86
2021/04/03 03:33:20;;;;;;;1999.90;999.90;;;6.40;99.90;;;;;;4834045;29;20169;-86
2021/04/03 03:35:46;;;;;;;1999.90;999.90;;;6.50;99.90;;;;;;4832441;29;20149;-86
2021/04/03 03:38:13;;;;;;;1999.90;999.90;;;6.40;99.90;;;;;;4832409;29;20194;-86
2021/04/03 03:40:42;;;;;;;1999.90;999.90;;;6.50;99.90;;;;;;4816151;29;20217;-85
2021/04/03 03:43:15;;;;;;;1999.90;999.90;;;6.50;99.90;;;;;;4815142;29;20264;-86
2021/04/03 03:45:55;;;;;;;1999.90;999.90;;;6.50;99.90;;;;;;4815322;29;20171;-86
2021/04/03 03:48:32;;;;;;;1999.90;999.90;;;6.50;99.90;;;;;;4814808;29;20237;-86
2021/04/03 03:51:07;;;;;;;1999.90;999.90;;;6.40;99.90;;;;;;4815217;29;20161;-85
2021/04/03 03:53:42;;;;;;;1999.90;999.90;;;6.50;99.90;;;;;;4815084;29;20223;-87
2021/04/03 03:56:14;;;;;;;1999.90;999.90;;;6.50;99.90;;;;;;4830461;29;20232;-85
2021/04/03 03:58:54;;;;;;;;;;;;;;;;;;;;;
2021/04/03 04:01:26;;;;;;;1999.90;999.90;;;6.60;99.90;;;;;;4831712;29;20241;-86
2021/04/03 04:03:55;;;;;;;1999.90;999.90;;;6.70;99.90;;;;;;4814722;29;20207;-86
2021/04/03 04:06:32;;;;;;;1999.90;999.90;;;6.70;99.90;;;;;;4820364;29;20181;-85
2021/04/03 04:09:08;;;;;;;1999.90;999.90;;;6.60;99.90;;;;;;4817576;29;20196;-86
2021/04/03 04:11:34;;;;;;;1999.90;999.90;;;6.60;99.90;;;;;;4815090;29;20243;-85
2021/04/03 04:14:10;;;;;;;1999.90;999.90;;;6.70;99.90;;;;;;4831113;29;20191;-85
2021/04/03 04:16:50;;;;;;;1999.90;999.90;;;6.70;99.90;;;;;;4830906;29;20165;-85
2021/04/03 04:19:28;;;;;;;1999.90;999.90;;;6.70;99.90;;;;;;4813898;29;20284;-85
2021/04/03 04:22:07;;;;;;;1999.90;999.90;;;6.70;99.90;;;;;;4830046;29;20184;-85
2021/04/03 04:24:52;;;;;;;1999.90;999.90;;;6.60;99.90;;;;;;4816319;29;20165;-86
2021/04/03 04:27:47;;;;;;;1999.90;999.90;;;6.60;99.90;;;;;;4835525;29;20272;-87
2021/04/03 04:30:27;;;;;;;1999.90;999.90;;;6.70;99.90;;;;;;4817484;29;20182;-87
2021/04/03 04:32:52;;;;;;;1999.90;999.90;;;6.70;99.90;;;;;;4840277;29;20172;-87
2021/04/03 04:35:27;;;;;;;1999.90;999.90;;;6.60;99.90;;;;;;4823487;29;20262;-87
2021/04/03 04:37:59;;;;;;;1999.90;999.90;;;6.60;99.90;;;;;;4823167;29;20493;-87
2021/04/03 04:40:27;;;;;;;1999.90;999.90;;;6.60;99.90;;;;;;4822224;29;20193;-87
2021/04/03 04:43:02;;;;;;;1999.90;999.90;;;6.70;99.90;;;;;;4822272;29;20175;-87
2021/04/03 04:45:38;;;;;;;1999.90;999.90;;;6.70;99.90;;;;;;4822579;29;20189;-87
2021/04/03 04:48:04;;;;;;;1999.90;999.90;;;6.70;99.90;;;;;;4822770;29;20201;-87
2021/04/03 04:50:30;;;;;;;1999.90;999.90;;;6.70;99.40;;;;;;4838620;29;20198;-87
2021/04/03 04:53:11;;;;;;;1999.90;999.90;;;6.60;99.80;;;;;;4837830;29;20196;-87
2021/04/03 04:55:37;;;;;;;1999.90;999.90;;;6.60;99.90;;;;;;4822851;29;20421;-87
2021/04/03 04:58:20;;;;;;;1999.90;999.90;;;6.60;99.90;;;;;;4838133;29;20197;-87
2021/04/03 05:00:54;;;;;;;1999.90;999.90;;;6.50;99.90;;;;;;4837455;29;20191;-87
2021/04/03 05:03:22;;;;;;;1999.90;999.90;;;6.60;99.90;;;;;;4837134;29;20152;-85
2021/04/03 05:05:54;;;;;;;1999.90;999.90;;;6.60;99.90;;;;;;4836450;29;20656;-86
2021/04/03 05:08:22;;;;;;;1999.90;999.90;;;6.60;99.90;;;;;;4835907;29;20192;-87
2021/04/03 05:10:51;;;;;;;1999.90;999.90;;;6.60;99.90;;;;;;4819833;29;20181;-85
2021/04/03 05:13:20;;;;;;;1999.90;999.90;;;6.60;99.90;;;;;;4836553;29;20184;-86
2021/04/03 05:16:06;;;;;;;1999.90;999.90;;;6.70;99.90;;;;;;4820386;29;20183;-86
2021/04/03 05:18:32;;;;;;;1999.90;999.90;;;6.70;99.90;;;;;;4825611;24;20340;-86
2021/04/03 05:21:00;;;;;;;1999.90;999.90;;;6.70;99.90;;;;;;4811089;29;20795;-86
2021/04/03 05:23:32;;;;;;;1999.90;999.90;;;6.70;99.90;;;;;;4810710;29;20161;-85
2021/04/03 05:26:01;;;;;;;1999.90;999.90;;;6.70;99.90;;;;;;4809108;29;20306;-86
2021/04/03 05:28:35;;;;;;;1999.90;999.90;;;6.60;99.90;;;;;;4808447;29;20678;-86
2021/04/03 05:31:08;;;;;;;1999.90;999.90;;;6.60;99.90;;;;;;4809530;29;20168;-85
2021/04/03 05:33:34;;;;;;;1999.90;999.90;;;6.60;99.90;;;;;;4809152;29;20257;-85
2021/04/03 05:36:02;;;;;;;1999.90;999.90;;;6.70;99.90;;;;;;4809363;29;20209;-86
2021/04/03 05:38:43;;;;;;;1999.90;999.90;;;6.70;99.90;;;;;;4817507;29;20188;-85
2021/04/03 05:41:17;;;;;;;1999.90;999.90;;;6.70;99.90;;;;;;4816084;29;20275;-86
2021/04/03 05:43:52;;;;;;;1999.90;999.90;;;6.70;99.90;;;;;;4811475;29;20510;-85
2021/04/03 05:46:24;;;;;;;1999.90;999.90;;;6.70;99.90;;;;;;4811331;29;20194;-85
2021/04/03 05:48:58;;;;;;;1999.90;999.90;;;6.80;99.90;;;;;;4794808;29;20204;-87
2021/04/03 05:51:40;;;;;;;1999.90;999.90;;;6.90;99.90;;;;;;4811194;29;20197;-87
2021/04/03 05:54:09;;;;;;;1999.90;999.90;;;6.90;99.90;;;;;;4810010;29;20181;-86
2021/04/03 05:56:38;;;;;;;1999.90;999.90;;;7.00;99.90;;;;;;4793672;29;20185;-85
2021/04/03 05:59:16;;;;;;;1999.90;999.90;;;7.00;99.90;;;;;;4810796;29;20201;-86
2021/04/03 06:01:51;;;;;;;1999.90;999.90;;;6.90;99.90;;;;;;4810793;29;20150;-85
2021/04/03 06:04:28;;;;;;;1999.90;999.90;;;6.90;99.90;;;;;;4810229;29;20176;-85
2021/04/03 06:07:03;;;;;;;1999.90;999.90;;;7.00;99.90;;;;;;4810031;29;20161;-86
2021/04/03 06:09:35;;;;;;;1999.90;999.90;;;7.10;99.90;;;;;;4809561;29;20224;-85
2021/04/03 06:12:17;;;;;;;1999.90;999.90;;;7.10;99.90;;;;;;4809500;29;20665;-85
2021/04/03 06:14:46;;;;;;;1999.90;999.90;;;6.80;99.90;;;;;;4809180;29;20157;-85
2021/04/03 06:17:14;;;;;;;1999.90;999.90;;;6.90;99.90;;;;;;4808642;29;20173;-86
2021/04/03 06:20:27;;;;;;;1999.90;999.90;;;6.80;99.90;;;;;;4791338;29;20213;-85
2021/04/03 06:23:13;;;;;;;1999.90;999.90;;;6.90;99.90;;;;;;4808114;29;20222;-85
2021/04/03 06:26:03;;;;;;;1999.90;999.90;;;6.90;99.90;;;;;;4810606;29;20177;-85
2021/04/03 06:28:46;;;;;;;1999.90;999.90;;;6.90;99.90;;;;;;4812432;29;20666;-86
2021/04/03 06:31:40;;;;;;;1999.90;999.90;;;6.90;99.90;;;;;;4814215;29;20187;-86
2021/04/03 06:34:24;;;;;;;1999.90;999.90;;;6.90;99.90;;;;;;4812110;29;20196;-85
2021/04/03 06:37:39;;;;;;;1999.90;999.90;;;7.00;99.90;;;;;;4811377;29;20160;-87
2021/04/03 06:40:07;;;;;;;1999.90;999.90;;;7.00;99.90;;;;;;4802960;29;20544;-85
2021/04/03 06:43:01;;;;;;;1999.90;999.90;;;7.20;99.90;;;;;;4811142;29;20615;-86
2021/04/03 06:45:53;;;;;;;1999.90;999.90;;;7.20;99.90;;;;;;4807768;29;20192;-87
2021/04/03 06:51:32;;;;;;;1999.90;999.90;;;7.40;99.90;;;;;;4809416;29;20213;-85
2021/04/03 06:54:23;;;;;;;1999.90;999.90;;;7.40;99.90;;;;;;4810773;29;20166;-87
2021/04/03 06:57:00;;;;;;;1999.90;999.90;;;7.40;99.90;;;;;;4811479;29;20244;-86
2021/04/03 06:59:34;;;;;;;1999.90;999.90;;;7.40;99.90;;;;;;4811063;29;20685;-86
2021/04/03 07:02:16;;;;;;;1999.90;999.90;;;7.40;99.90;;;;;;4811524;29;20622;-86
2021/04/03 07:04:46;;;;;;;1999.90;999.90;;;7.30;99.90;;;;;;4810954;29;20161;-87
2021/04/03 07:07:15;;;;;;;1999.90;999.90;;;7.20;99.90;;;;;;4794757;29;20530;-85
2021/04/03 07:09:41;;;;;;;1999.90;999.90;;;7.30;99.90;;;;;;4809879;29;20185;-86
2021/04/03 07:12:08;;;;;;;1999.90;999.90;;;7.20;99.90;;;;;;4810086;29;20205;-86
2021/04/03 07:14:35;;;;;;;1999.90;999.90;;;7.20;99.90;;;;;;4809084;29;20169;-87
2021/04/03 07:17:30;;;;;;;1999.90;999.90;;;7.30;99.90;;;;;;4808006;29;20184;-87
2021/04/03 07:20:22;;;;;;;1999.90;999.90;;;7.20;99.90;;;;;;4809470;29;20200;-85
2021/04/03 07:23:09;;;;;;;1999.90;999.90;;;7.20;99.90;;;;;;4808977;29;20169;-86
2021/04/03 07:25:50;;;;;;;1999.90;999.90;;;7.20;99.90;;;;;;4804096;29;20192;-85
2021/04/03 07:28:21;;;;;;;1999.90;999.90;;;7.20;99.90;;;;;;4809317;29;20265;-87
2021/04/03 07:31:22;;;;;;;1999.90;999.90;;;7.20;99.90;;;;;;4818837;29;20165;-85
2021/04/03 07:34:00;;;;;;;1999.90;999.90;;;7.20;99.90;;;;;;4811916;29;20205;-85
2021/04/03 07:36:40;;;;;;;1999.90;999.90;;;7.30;99.90;;;;;;4809698;29;20181;-85
2021/04/03 07:39:44;;;;;;;1999.90;999.90;;;7.40;99.90;;;;;;4809795;29;20209;-86
2021/04/03 07:42:57;;;;;;;1999.90;999.90;;;7.50;99.90;;;;;;4809717;29;20518;-85
2021/04/03 07:45:47;;;;;;;1999.90;999.90;;;7.50;99.90;;;;;;4809654;29;20193;-86
2021/04/03 07:48:51;;;;;;;1999.90;999.90;;;7.50;99.90;;;;;;4808879;29;20212;-85
2021/04/03 07:52:17;;;;;;;;;;;;;;;;;;;;;
2021/04/03 07:54:51;;;;;;;1999.90;999.90;;;7.60;99.90;;;;;;4808556;29;20199;-85
2021/04/03 07:57:55;;;;;;;1999.90;999.90;;;7.60;99.20;;;;;;4809392;29;20210;-85
2021/04/03 08:00:53;;;;;;;1999.90;999.90;;;7.60;98.70;;;;;;4797058;29;20220;-86
2021/04/03 08:03:54;;;;;;;1999.90;999.90;;;7.60;99.00;;;;;;4811451;29;20177;-86
2021/04/03 08:07:19;;;;;;;1999.90;999.90;;;7.70;99.60;;;;;;4806280;29;20271;-87
2021/04/03 08:10:03;;;;;;;1999.90;999.90;;;7.70;97.80;;;;;;4775525;30;20614;-84
2021/04/03 08:13:09;;;;;;;1999.90;999.90;;;7.80;99.40;;;;;;4776557;30;20187;-85
2021/04/03 08:15:35;;;;;;;1999.90;999.90;;;7.80;99.50;;;;;;4774838;30;20183;-85
2021/04/03 08:18:34;;;;;;;1999.90;999.90;;;7.80;99.20;;;;;;4773386;30;20202;-85
2021/04/03 08:21:30;;;;;;;1999.90;999.90;;;7.90;95.20;;;;;;4771992;30;20359;-84
2021/04/03 08:28:14;;;;;;;1999.90;999.90;;;8.10;90.40;;;;;;4793387;29;20201;-85
2021/04/03 08:31:52;;;;;;;1999.90;999.90;;;8.10;90.50;;;;;;4773231;30;20639;-85
2021/04/03 08:35:28;;;;;;;1999.90;999.90;;;8.00;89.00;;;;;;4745859;30;20622;-86
2021/04/03 08:42:38;;;;;;;1999.90;999.90;;;8.10;92.50;;;;;;4717586;30;20224;-85
2021/04/03 08:52:32;;;;;;;;;;;;;;;;;;;;;
2021/04/03 08:55:55;;;;;;;;;;;;;;;;;;;;;
2021/04/03 09:01:52;;;;;;;1999.90;999.90;;;8.30;93.10;;;;;;4703676;30;20224;-86
2021/04/03 09:08:03;;;;;;;1999.90;999.90;;;8.30;91.40;;;;;;4718282;30;20262;-86
2021/04/03 09:10:54;;;;;;;1999.90;999.90;;;8.30;92.10;;;;;;4717975;30;20192;-86
2021/04/03 09:19:40;;;;;;;1999.90;999.90;;;8.60;94.20;;;;;;4810507;23;684910;-78
2021/04/03 09:22:12;;;;;;;1999.90;999.90;;;8.60;93.10;;;;;;4828501;29;20557;-78
2021/04/03 09:24:44;;;;;;;1999.90;999.90;;;8.70;94.70;;;;;;4827769;29;20208;-78
2021/04/03 09:27:20;;;;;;;1999.90;999.90;;;8.90;96.40;;;;;;4828356;29;20188;-78
2021/04/03 09:29:47;;;;;;;1999.90;999.90;;;9.10;95.50;;;;;;4828227;29;20224;-78
2021/04/03 09:32:14;;;;;;;1999.90;999.90;;;9.10;94.00;;;;;;4828661;29;20585;-79
2021/04/03 09:34:41;;;;;;;1999.90;999.90;;;9.20;94.10;;;;;;4827816;29;20629;-78
2021/04/03 09:37:17;;;;;;;1999.90;999.90;;;9.40;92.80;;;;;;4828530;29;20208;-78
2021/04/03 09:39:46;;;;;;;1999.90;999.90;;;9.50;92.70;;;;;;4828642;29;20203;-78
2021/04/03 09:42:17;;;;;;;1999.90;999.90;;;9.60;91.50;;;;;;4828070;29;20173;-78
2021/04/03 09:44:44;;;;;;;1999.90;999.90;;;9.70;89.80;;;;;;4828496;29;20165;-78
2021/04/03 09:47:13;;;;;;;1999.90;999.90;;;9.80;90.30;;;;;;4829586;29;20200;-78
2021/04/03 09:49:39;;;;;;;1999.90;999.90;;;9.90;89.60;;;;;;4829441;29;20193;-78
2021/04/03 09:52:06;;;;;;;1999.90;999.90;;;10.00;86.50;;;;;;4812720;29;20173;-78
2021/04/03 09:54:32;;;;;;;1999.90;999.90;;;10.10;88.40;;;;;;4829308;29;20597;-78
2021/04/03 09:56:58;;;;;;;1999.90;999.90;;;10.10;81.30;;;;;;4828864;29;20196;-78
2021/04/03 09:59:23;;;;;;;1999.90;999.90;;;10.20;81.70;;;;;;4829597;29;20737;-78
2021/04/03 10:01:50;;;;;;;1999.90;999.90;;;10.40;78.40;;;;;;4830519;29;20169;-78
2021/04/03 10:04:15;;;;;;;1999.90;999.90;;;10.40;81.20;;;;;;4812870;29;20656;-78
2021/04/03 10:06:41;;;;;;;1999.90;999.90;;;10.40;82.30;;;;;;4830237;29;20189;-78
2021/04/03 10:09:07;;;;;;;1999.90;999.90;;;10.50;76.00;;;;;;4830703;29;20187;-78
2021/04/03 10:11:33;;;;;;;1999.90;999.90;;;10.50;77.10;;;;;;4830816;29;20181;-78
2021/04/03 10:13:59;;;;;;;1999.90;999.90;;;10.70;75.20;;;;;;4829995;29;20180;-78
2021/04/03 10:16:24;;;;;;;1999.90;999.90;;;10.80;75.50;;;;;;4813326;29;20441;-78
2021/04/03 10:18:50;;;;;;;1999.90;999.90;;;10.80;61.70;;;;;;4829763;29;20454;-78
2021/04/03 10:21:16;;;;;;;1999.90;999.90;;;10.90;59.80;;;;;;4829643;29;20198;-78
2021/04/03 10:23:41;;;;;;;1999.90;999.90;;;10.90;56.80;;;;;;4829922;29;20199;-79
2021/04/03 10:26:07;;;;;;;1999.90;999.90;;;10.80;64.50;;;;;;4830122;29;20196;-78
2021/04/03 10:28:33;;;;;;;1999.90;999.90;;;11.10;62.90;;;;;;4830065;29;20255;-78
2021/04/03 10:30:58;;;;;;;1999.90;999.90;;;11.40;63.80;;;;;;4830184;29;20418;-79
2021/04/03 10:33:24;;;;;;;1999.90;999.90;;;11.60;63.90;;;;;;4830185;29;20187;-79
2021/04/03 10:35:50;;;;;;;1999.90;999.90;;;11.80;57.30;;;;;;4830788;29;20192;-79
2021/04/03 10:38:15;;;;;;;1999.90;999.90;;;12.00;45.60;;;;;;4813459;29;20266;-78
2021/04/03 10:40:41;;;;;;;1999.90;999.90;;;12.00;46.50;;;;;;4830658;29;20192;-79
2021/04/03 10:43:07;;;;;;;1999.90;999.90;;;12.10;50.50;;;;;;4829929;29;20177;-79
2021/04/03 10:45:32;;;;;;;1999.90;999.90;;;12.10;41.30;;;;;;4830278;29;20200;-78
2021/04/03 10:47:58;;;;;;;1999.90;999.90;;;12.20;43.80;;;;;;4830021;29;20184;-79
2021/04/03 10:50:24;;;;;;;1999.90;999.90;;;12.40;35.40;;;;;;4830578;29;20179;-79
2021/04/03 10:52:50;;;;;;;1999.90;999.90;;;12.50;32.40;;;;;;4813865;29;20207;-78
2021/04/03 10:55:16;;;;;;;1999.90;999.90;;;12.60;31.40;;;;;;4830214;29;20181;-79
2021/04/03 10:57:41;;;;;;;1999.90;999.90;;;13.00;35.80;;;;;;4830742;29;20237;-79
2021/04/03 11:00:07;;;;;;;1999.90;999.90;;;13.30;28.80;;;;;;4813895;29;20466;-79
2021/04/03 11:02:33;;;;;;;1999.90;999.90;;;13.30;26.90;;;;;;4814819;29;20176;-78
2021/04/03 11:04:59;;;;;;;1999.90;999.90;;;13.40;26.90;;;;;;4831235;29;20203;-79
2021/04/03 11:07:25;;;;;;;1999.90;999.90;;;13.30;24.80;;;;;;4831155;29;20223;-78
2021/04/03 11:09:52;;;;;;;1999.90;999.90;;;13.10;22.10;;;;;;4831352;29;20173;-78
2021/04/03 11:12:18;;;;;;;1999.90;999.90;;;12.70;22.90;;;;;;4831226;29;20169;-79
2021/04/03 11:14:44;;;;;;;1999.90;999.90;;;12.40;23.20;;;;;;4814533;29;20249;-79
2021/04/03 11:17:10;;;;;;;1999.90;999.90;;;12.10;26.10;;;;;;4830938;29;20188;-79
2021/04/03 11:19:36;;;;;;;1999.90;999.90;;;12.10;28.10;;;;;;4880409;24;20689;-84
2021/04/03 11:22:03;;;;;;;1999.90;999.90;;;12.10;29.90;;;;;;4819460;29;20206;-85
2021/04/03 11:24:28;;;;;;;1999.90;999.90;;;12.20;29.00;;;;;;4820212;29;20192;-84
2021/04/03 11:26:54;;;;;;;1999.90;999.90;;;12.10;32.00;;;;;;4820669;29;20185;-84
2021/04/03 11:29:20;;;;;;;1999.90;999.90;;;12.10;32.00;;;;;;4816818;29;20188;-83
2021/04/03 11:31:45;;;;;;;1999.90;999.90;;;12.10;28.10;;;;;;4819719;29;20211;-84
2021/04/03 11:34:11;;;;;;;1999.90;999.90;;;12.10;24.20;;;;;;4824144;29;20184;-84
2021/04/03 11:36:37;;;;;;;1999.90;999.90;;;12.10;24.00;;;;;;4807589;29;20202;-84
2021/04/03 11:39:06;;;;;;;1999.90;999.90;;;11.90;24.40;;;;;;4824059;29;20212;-84
2021/04/03 11:41:34;;;;;;;1999.90;999.90;;;12.10;26.40;;;;;;4823809;29;20175;-84
2021/04/03 11:44:01;;;;;;;1999.90;999.90;;;12.40;24.60;;;;;;4823013;29;20161;-84
2021/04/03 11:46:26;;;;;;;1999.90;999.90;;;12.70;23.10;;;;;;4823705;29;20208;-84
2021/04/03 11:48:52;;;;;;;1999.90;999.90;;;13.00;19.50;;;;;;4808016;29;20169;-84
2021/04/03 11:51:18;;;;;;;1999.90;999.90;;;13.30;21.50;;;;;;4823996;29;20196;-84
2021/04/03 11:53:50;;;;;;;1999.90;999.90;;;13.80;23.60;;;;;;4823156;29;20248;-84
2021/04/03 11:56:16;;;;;;;1999.90;999.90;;;14.00;23.30;;;;;;4822790;29;20669;-84
2021/04/03 11:58:42;;;;;;;1999.90;999.90;;;13.90;20.30;;;;;;4823045;29;20206;-84
2021/04/03 12:01:07;;;;;;;1999.90;999.90;;;13.70;20.80;;;;;;4807146;29;20226;-84
2021/04/03 12:03:33;;;;;;;1999.90;999.90;;;13.60;20.80;;;;;;4822649;29;20434;-84
2021/04/03 12:05:59;;;;;;;1999.90;999.90;;;13.60;19.30;;;;;;4822897;29;20228;-84
2021/04/03 12:08:25;;;;;;;1999.90;999.90;;;13.70;19.20;;;;;;4822854;29;20450;-84
2021/04/03 12:10:51;;;;;;;1999.90;999.90;;;13.40;17.80;;;;;;4807555;29;20582;-84
2021/04/03 12:13:17;;;;;;;1999.90;999.90;;;13.10;18.80;;;;;;4822394;29;20653;-84
2021/04/03 12:15:43;;;;;;;1999.90;999.90;;;12.90;21.50;;;;;;4806539;29;20422;-84
2021/04/03 12:18:09;;;;;;;1999.90;999.90;;;12.70;20.40;;;;;;4822319;29;20297;-84
2021/04/03 12:20:35;;;;;;;1999.90;999.90;;;12.60;22.30;;;;;;4806937;29;20201;-84
2021/04/03 12:23:01;;;;;;;1999.90;999.90;;;12.50;23.00;;;;;;4806891;29;21012;-84
2021/04/03 12:25:27;;;;;;;1999.90;999.90;;;12.60;22.50;;;;;;4823396;29;20415;-84
2021/04/03 12:27:53;;;;;;;1999.90;999.90;;;12.80;20.50;;;;;;4806948;29;20430;-84
2021/04/03 12:30:19;;;;;;;1999.90;999.90;;;12.70;18.80;;;;;;4822303;29;20177;-84
2021/04/03 12:32:45;;;;;;;1999.90;999.90;;;12.80;18.30;;;;;;4821889;29;20176;-85
2021/04/03 12:35:11;;;;;;;1999.90;999.90;;;12.80;15.90;;;;;;4823244;29;20256;-84
2021/04/03 12:37:37;;;;;;;1999.90;999.90;;;13.10;16.20;;;;;;4822349;29;20206;-84
2021/04/03 12:40:05;;;;;;;1999.90;999.90;;;13.30;14.00;;;;;;4805661;29;20554;-84
2021/04/03 12:42:31;;;;;;;1999.90;999.90;;;13.40;10.70;;;;;;4822346;29;20173;-85
2021/04/03 12:44:57;;;;;;;1999.90;999.90;;;13.40;11.00;;;;;;4821301;29;20165;-84
2021/04/03 12:47:23;;;;;;;1999.90;999.90;;;13.40;12.30;;;;;;4806445;29;20194;-85
2021/04/03 12:49:48;;;;;;;1999.90;999.90;;;13.50;12.10;;;;;;4806655;29;20414;-84
2021/04/03 12:52:14;;;;;;;1999.90;999.90;;;13.50;11.30;;;;;;4822019;29;20169;-85
2021/04/03 12:54:40;;;;;;;1999.90;999.90;;;13.50;10.30;;;;;;4822047;29;20177;-85
2021/04/03 12:57:06;;;;;;;1999.90;999.90;;;13.40;9.60;;;;;;4822611;29;20190;-85
2021/04/03 12:59:32;;;;;;;1999.90;999.90;;;13.20;7.40;;;;;;4822431;29;20201;-84
2021/04/03 13:01:57;;;;;;;1999.90;999.90;;;13.40;9.60;;;;;;4822396;29;20180;-84
2021/04/03 13:04:24;;;;;;;1999.90;999.90;;;13.70;8.20;;;;;;4821737;29;20256;-85
2021/04/03 13:06:50;;;;;;;1999.90;999.90;;;14.00;5.70;;;;;;4820466;29;20246;-84
2021/04/03 13:09:15;;;;;;;1999.90;999.90;;;14.00;6.00;;;;;;4823267;29;20174;-84
2021/04/03 13:11:44;;;;;;;1999.90;999.90;;;13.90;5.60;;;;;;4822835;29;20591;-84
2021/04/03 13:14:09;;;;;;;1999.90;999.90;;;13.60;4.70;;;;;;4822198;29;20173;-85
2021/04/03 13:16:35;;;;;;;1999.90;999.90;;;13.60;6.70;;;;;;4822247;29;20265;-85
2021/04/03 13:19:01;;;;;;;1999.90;999.90;;;13.50;6.30;;;;;;4821808;29;20192;-84
2021/04/03 13:21:26;;;;;;;1999.90;999.90;;;13.30;5.60;;;;;;4806012;29;20177;-84
2021/04/03 13:23:52;;;;;;;1999.90;999.90;;;13.40;6.50;;;;;;4821706;29;20178;-84
2021/04/03 13:26:18;;;;;;;1999.90;999.90;;;13.20;5.50;;;;;;4823173;29;20249;-84
2021/04/03 13:28:43;;;;;;;1999.90;999.90;;;13.10;3.50;;;;;;4822277;29;20206;-85
2021/04/03 13:31:09;;;;;;;1999.90;999.90;;;13.30;6.20;;;;;;4822807;29;20173;-85